Tiempo atmosférico en la estación meteorológica de Villalón De Campos, Valladolid (763 m.)



Fecha
DESCASC
Temp. máxima en grados centígrados (hora)
DESCASC
Temp. mínima en grados centígrados (hora)
DESCASC
Temp. media en grados centígrados
DESCASC
Racha de viento máxima en m/sg (hora)
DESCASC
Velocidad máxima media en intervalos de 10 minutos(hora)
DESCASC
Precipitaciones diarias en mm
DESCASC
Precipitaciones de 00:00 a 06:00 en mm
DESCASC
Precipitaciones de 06:00 a 12:00 en mm
DESCASC
Precipitaciones de 12:00 a 18:00 en mm
DESCASC
Precipitaciones de 18:00 a 24:00 en mm
DESCASC
05-04-2020 16.2 (13:20) 7.2 (00:00) 11.7 10 (14:50) 6.67 (14:50) 17.6 0 0 1.6 16
04-04-2020 18.1 (17:10) -0.3 (04:50) 8.9 9.44 (18:10) 5 (18:40) 0 0 0 0 0
03-04-2020 15.3 (19:00) -1.3 (08:00) 7 5.28 (11:50) 2.5 (11:20) 0 0 0 0 0
02-04-2020 13.9 (19:10) 4 (00:00) 8.9 9.44 (15:40) 5 (11:00) 2.6 0.8 1.6 0.2 0
01-04-2020 14.5 (16:10) 1.3 (00:00) 7.9 11.11 (17:10) 5 (17:30) 11.2 2.2 0 1 8
31-03-2020 8.5 (17:50) -0.8 (-00:0) 3.8 17.22 (12:10) 6.67 (12:30) 0 0 0 0 0
30-03-2020 7.3 (16:50) 0.2 (00:00) 3.8 12.78 (05:50) 6.67 (05:50) 0 0 0 0 0
29-03-2020 17.1 (17:00) -0.9 (-00:0) 8.1 10 (20:30) 5.28 (20:30) 0 0 0 0 0
28-03-2020 17.2 (16:40) -1 (-00:0) 8.1 5.28 (09:10) 2.5 (00:10) 0 0 0 0 0
27-03-2020 13.5 (16:40) -1.1 (-00:0) 6.2 12.5 (09:50) 5.28 (10:00) 0 0 0 0 0
26-03-2020 13.8 (16:30) -3.2 (-00:0) 5.3 7.5 (18:40) 3.89 (18:40) 0 0 0 0 0
25-03-2020 18.9 (16:30) 0.3 (00:00) 9.6 5 (13:40) 3.06 (16:00) 0 0 0 0 0
24-03-2020 17.4 (17:00) 3.6 (00:00) 10.5 10.28 (11:20) 5 (10:30) 0 0 0 0 0
23-03-2020 16 (16:00) 4.1 (00:00) 10 8.89 (11:40) 4.17 (00:20) 0 0 0 0 0
22-03-2020 17.6 (16:20) 6.1 (08:20) 11.9 11.11 (17:10) 5 (18:00) 0.2 0 0.2 0 0
21-03-2020 15.4 (13:40) 4.4 (00:00) 9.9 7.5 (21:00) 4.72 (17:10) 2.4 0 0 0 2.4
20-03-2020 15.1 (15:20) 5.4 (00:00) 10.3 6.39 (18:00) 4.72 (18:00) 0 0 0 0 0
19-03-2020 17.7 (15:30) 5.6 (00:00) 11.7 5 (10:40) 3.33 (10:50) 0 0 0 0 0
18-03-2020 17.3 (16:30) 5.2 (00:00) 11.2 6.67 (11:20) 3.33 (00:30) 0 0 0 0 0
17-03-2020 13.5 (17:20) 4.3 (00:00) 8.9 14.44 (11:10) 7.22 (12:30) 0 0 0 0 0
16-03-2020 10 (15:10) 0.1 (00:00) 5.1 13.61 (15:40) 7.5 (15:30) 12 10 2 0 0
15-03-2020 17.9 (14:10) -2 (-00:0) 7.9 15.56 (22:10) 10.56 (22:10) 1.8 0 0 0 1.8
14-03-2020 19.9 (17:20) -2.5 (-00:0) 8.7 4.17 (14:40) 2.22 (12:20) 0 0 0 0 0
13-03-2020 13.9 (16:30) 4.2 (23:59) 9 11.39 (09:40) 5.83 (10:10) 0 0 0 0 0
12-03-2020 18.6 (16:00) 6.9 (00:00) 12.8 10.56 (22:10) 5.28 (21:10) 0 0 0 0 0
11-03-2020 22.5 (16:50) 0.5 (00:00) 11.5 8.33 (14:00) 5.83 (17:00) 0 0 0 0 0
10-03-2020 21.6 (17:50) 2.7 (00:00) 12.2 6.67 (15:40) 4.72 (23:30) 0 0 0 0 0
09-03-2020 15 (17:20) -0.5 (-00:0) 7.3 11.94 (00:10) 8.33 (00:10) 0 0 0 0 0

Gráficas

Temp. máximas Temp. mínimas Temp. medias Precipitaciones Rachas de viento máximas Velocidades máximas media en intervalos de 10 minutos

Datos horarios

Fecha y hora oficial Temperatura (ºC) Velocidad del viento (km/h) Dirección del viento Racha (km/h) Dirección de racha Precipitación (mm) Presión (hPa) Tendencia (hPa) Humedad (%)
2020-04-07 23:00:00 12 6 Sur 27 Sudoeste 0 -- -- 87
2020-04-07 22:00:00 12.5 4 Este 12 Este 0 -- -- 85
2020-04-07 21:00:00 12.9 4 Norte 17 Oeste 0 -- -- 82
2020-04-07 20:00:00 15.4 5 Noroeste 29 Noroeste 0 -- -- 71
2020-04-07 19:00:00 15.9 15 Oeste 28 Oeste 0 -- -- 72
2020-04-07 18:00:00 18.9 7 Noroeste 12 Noroeste 0 -- -- 60
2020-04-07 17:00:00 17.8 4 Sudoeste 12 Sudoeste 0 -- -- 65
2020-04-07 16:00:00 18.8 4 Sudoeste 15 Sur 0 -- -- 62
2020-04-07 15:00:00 16.1 7 Oeste 16 Sudoeste 0 -- -- 70
2020-04-07 14:00:00 17.8 7 Sudoeste 13 Sudoeste 0 -- -- 65
2020-04-07 13:00:00 17.3 7 Sudeste 14 Sudeste 0 -- -- 65
2020-04-07 12:00:00 16.5 5 Sudoeste 14 Sudeste 0 -- -- 73
2020-04-07 11:00:00 13.8 9 Sudeste 14 Sudeste 0 -- -- 85
2020-04-07 10:00:00 11.4 6 Este 11 Este 0 -- -- 94
2020-04-07 09:00:00 9.6 3 Nordeste 6 Nordeste 0 -- -- 100
2020-04-07 08:00:00 8.7 3 Este 5 Este 0 -- -- 100
2020-04-07 07:00:00 8.3 2 Sudeste 8 Este 0 -- -- 99
2020-04-07 06:00:00 9.3 4 Este 7 Este 0.4 -- -- 100
2020-04-07 05:00:00 9.4 5 Sudeste 10 Este 0 -- -- 100
2020-04-07 04:00:00 9.3 5 Este 13 Sudeste 0.4 -- -- 99
2020-04-07 03:00:00 9.2 5 Sudeste 10 Sudeste 1.2 -- -- 99
2020-04-07 02:00:00 9.5 5 Sudeste 10 Sudeste 0 -- -- 99
2020-04-07 01:00:00 9.6 6 Sudeste 12 Sudeste 0.2 -- -- 98
2020-04-07 00:00:00 10 8 Sur 12 Sudeste 0.2 -- -- 98
2020-04-06 23:00:00 9.9 5 Sur 7 Sur 0 -- -- 97
2020-04-06 22:00:00 10 5 Sudoeste 9 Sudoeste 0.2 -- -- 96
2020-04-06 21:00:00 10.3 7 Sudoeste 21 Sudoeste 0 -- -- 94
2020-04-06 20:00:00 11.2 16 Sudoeste 26 Sudoeste 0 -- -- 89
2020-04-06 19:00:00 12.1 18 Sudoeste 28 Sudoeste 0 -- -- 85
2020-04-06 18:00:00 12.3 20 Oeste 40 Oeste 0.2 -- -- 87
2020-04-06 17:00:00 12.6 27 Sudoeste 39 Sudoeste 0 -- -- 82
2020-04-06 16:00:00 15.2 26 Sudoeste 35 Sudoeste 0 -- -- 68
2020-04-06 15:00:00 15.1 20 Sudoeste 36 Sudoeste 0 -- -- 71
2020-04-06 14:00:00 15.6 20 Sudoeste 31 Sur 0 -- -- 67
2020-04-06 13:00:00 14.4 22 Sudoeste 30 Sudoeste 0 -- -- 76
2020-04-06 12:00:00 13.1 21 Sudoeste 31 Sudoeste 0 -- -- 85
2020-04-06 11:00:00 11.5 21 Sudoeste 35 Sudoeste 0 -- -- 99
2020-04-06 10:00:00 10.9 24 Sudoeste 33 Sudoeste 0 -- -- 100
2020-04-06 09:00:00 10.9 24 Sudoeste 32 Sudoeste 0.2 -- -- 100
2020-04-06 08:00:00 11.1 15 Sudoeste 21 Sudoeste 0 -- -- 100
2020-04-06 07:00:00 10.9 14 Sudoeste 19 Sudoeste 0 -- -- 100
2020-04-06 06:00:00 10.6 8 Sur 17 Sur 0.4 -- -- 100
2020-04-06 05:00:00 10.3 10 Sudeste 20 Sudeste 0.4 -- -- 100
2020-04-06 04:00:00 10.4 10 Sudeste 15 Sudeste 0.2 -- -- 100
2020-04-06 03:00:00 10.1 7 Sudeste 11 Sudeste 0.8 -- -- 100
2020-04-06 02:00:00 9.8 8 Sudeste 14 Sudeste 0.8 -- -- 100
2020-04-06 01:00:00 10.1 7 Sudeste 14 Sudeste 1 -- -- 100
2020-04-06 00:00:00 10.2 9 Sudeste 17 Sudeste 1.8 -- -- 100
2020-04-05 23:00:00 10.3 5 Sudeste 8 Sudeste 1.6 -- -- 99
2020-04-05 22:00:00 10.4 2 Sudeste 12 Oeste 3.2 -- -- 99
2020-04-05 21:00:00 10.7 6 Sudoeste 14 Oeste 5.2 -- -- 99
2020-04-05 20:00:00 10.7 6 Sudoeste 12 Sudoeste 2.6 -- -- 98
2020-04-05 19:00:00 11.2 8 Oeste 18 Sudoeste 1.6 -- -- 97
2020-04-05 18:00:00 12 17 Sudoeste 28 Sudoeste 1 -- -- 94
2020-04-05 17:00:00 13.8 10 Sudoeste 25 Sudoeste 0.4 -- -- 81
2020-04-05 16:00:00 13.4 19 Sudoeste 30 Oeste 0.2 -- -- 84
2020-04-05 15:00:00 13.4 19 Oeste 36 Sudoeste 0 -- -- 85
2020-04-05 14:00:00 14.9 16 Sudoeste 29 Sudoeste 0 -- -- 63
2020-04-05 13:00:00 14.7 15 Sudoeste 34 Sudoeste 0 -- -- 63
2020-04-05 12:00:00 14.4 18 Sudoeste 30 Sudoeste 0 -- -- 64
2020-04-05 11:00:00 12.3 13 Sur 21 Sur 0 -- -- 72
2020-04-05 10:00:00 10.8 9 Sur 16 Sur 0 -- -- 78
2020-04-05 09:00:00 8.4 10 Sudeste 16 Sudeste 0 -- -- 85
2020-04-05 08:00:00 8 8 Sudeste 12 Este 0 -- -- 87
2020-04-05 07:00:00 8.3 5 Sudeste 9 Sudeste 0 -- -- 87
2020-04-05 06:00:00 8.3 6 Sur 9 Sur 0 -- -- 86
2020-04-05 05:00:00 8.4 4 Sudeste 6 Sudeste 0 -- -- 85
2020-04-05 04:00:00 7.9 5 Sur 9 Sudeste 0 -- -- 86
2020-04-05 03:00:00 8.2 4 Sudeste 16 Sur 0 -- -- 82
2020-04-05 02:00:00 9.1 10 Sur 18 Sur 0 -- -- 76
2020-04-05 01:00:00 8.8 4 Sur 12 Sudoeste 0 -- -- 75
2020-04-05 00:00:00 7.2 4 Sur 13 Sur 0 -- -- 82
2020-04-04 23:00:00 8.2 7 Sur 12 Sur 0 -- -- 75
2020-04-04 22:00:00 9.5 8 Sudeste 14 Sudeste 0 -- -- 74
2020-04-04 21:00:00 10.9 9 Sur 26 Sur 0 -- -- 66
2020-04-04 20:00:00 13.9 13 Sur 32 Sur 0 -- -- 53
2020-04-04 19:00:00 17.3 15 Sur 34 Sur 0 -- -- 45
2020-04-04 18:00:00 16.9 17 Sur 28 Sudeste 0 -- -- 42
2020-04-04 17:00:00 17.9 14 Sudeste 29 Sudeste 0 -- -- 43
2020-04-04 16:00:00 17.5 13 Sudeste 31 Sudeste 0 -- -- 41
2020-04-04 15:00:00 16.4 12 Sudeste 24 Sudeste 0 -- -- 45
2020-04-04 14:00:00 16.3 8 Sudeste 19 Sudeste 0 -- -- 48
2020-04-04 13:00:00 14.9 8 Sudeste 18 Sudeste 0 -- -- 56
2020-04-04 12:00:00 12.2 9 Sudeste 19 Sudeste 0 -- -- 62
2020-04-04 11:00:00 9.8 9 Este 18 Este 0 -- -- 70
2020-04-04 10:00:00 7 8 Este 14 Este 0 -- -- 73
2020-04-04 09:00:00 3.1 5 Nordeste 12 Este 0 -- -- 84
2020-04-04 08:00:00 1.7 4 Nordeste 13 Nordeste 0 -- -- 91
2020-04-04 07:00:00 2 6 Nordeste 11 Nordeste 0 -- -- 91
2020-04-04 06:00:00 0.1 4 Nordeste 9 Nordeste 0 -- -- 95
2020-04-04 05:00:00 0 4 Norte 5 Nordeste 0 -- -- 97
2020-04-04 04:00:00 0.3 0 Calma 5 Norte 0 -- -- 96
2020-04-04 03:00:00 -0.1 2 Norte 3 Norte 0 -- -- 96
2020-04-04 02:00:00 0.7 0 Calma 3 Noroeste 0 -- -- 95
2020-04-04 01:00:00 1 2 Noroeste 5 Norte 0 -- -- 94
2020-04-04 00:00:00 1.8 3 Noroeste 4 Noroeste 0 -- -- 93
2020-04-03 23:00:00 2.3 0 Calma -- -- 0 -- -- 93
2020-04-03 22:00:00 3.7 3 Noroeste 5 Norte 0 -- -- 89
2020-04-03 21:00:00 8.2 0 Calma 3 Este 0 -- -- 75
2020-04-03 20:00:00 15 2 Sur 6 Sudeste 0 -- -- 51
2020-04-03 19:00:00 15.3 3 Sur 10 Este 0 -- -- 52
2020-04-03 18:00:00 14.3 6 Este 13 Este 0 -- -- 51
2020-04-03 17:00:00 13.5 8 Sudeste 12 Sudeste 0 -- -- 57
2020-04-03 16:00:00 11.4 6 Nordeste 13 Este 0 -- -- 62
2020-04-03 15:00:00 11.6 6 Sudeste 13 Norte 0 -- -- 64
2020-04-03 14:00:00 9.7 6 Norte 14 Nordeste 0 -- -- 71
2020-04-03 13:00:00 10 6 Norte 17 Nordeste 0 -- -- 66
2020-04-03 12:00:00 8 8 Este 19 Sudeste 0 -- -- 67
2020-04-03 11:00:00 6.3 8 Este 15 Este 0 -- -- 77
2020-04-03 10:00:00 4.4 5 Nordeste 9 Nordeste 0 -- -- 83
2020-04-03 09:00:00 0.4 4 Norte 6 Norte 0 -- -- 94
2020-04-03 08:00:00 -1.3 3 Norte 8 Nordeste 0 -- -- 95
2020-04-03 07:00:00 0.2 6 Nordeste 11 Este 0 -- -- 93
2020-04-03 06:00:00 1.2 5 Este 9 Nordeste 0 -- -- 91
2020-04-03 05:00:00 0.8 4 Este 10 Nordeste 0 -- -- 94
2020-04-03 04:00:00 1.5 5 Este 9 Nordeste 0 -- -- 92
2020-04-03 03:00:00 1.6 3 Este 8 Este 0 -- -- 94
2020-04-03 02:00:00 1.9 3 Este 7 Este 0 -- -- 95
2020-04-03 01:00:00 2.5 0 Calma 8 Este 0 -- -- 92
2020-04-03 00:00:00 4 3 Este 11 Nordeste 0 -- -- 88
2020-04-02 23:00:00 5.3 7 Nordeste 17 Este 0 -- -- 83
2020-04-02 22:00:00 6.6 6 Este 16 Este 0 -- -- 78
2020-04-02 21:00:00 8.7 6 Este 13 Este 0 -- -- 73
2020-04-02 20:00:00 10.7 5 Este 26 Este 0 -- -- 65
2020-04-02 19:00:00 13.8 8 Este 19 Este 0 -- -- 52
2020-04-02 18:00:00 11.9 6 Norte 14 Norte 0 -- -- 67
2020-04-02 17:00:00 11.4 9 Nordeste 27 Este 0 -- -- 68
2020-04-02 16:00:00 12.4 14 Este 34 Este 0.2 -- -- 67
2020-04-02 15:00:00 10.9 12 Este 31 Este 0 -- -- 74
2020-04-02 14:00:00 12.1 13 Este 31 Nordeste 0 -- -- 67
2020-04-02 13:00:00 11.1 14 Nordeste 28 Nordeste 0 -- -- 69
2020-04-02 12:00:00 10.1 17 Nordeste 30 Nordeste 0 -- -- 76
2020-04-02 11:00:00 10.5 18 Nordeste 28 Nordeste 0 -- -- 78
2020-04-02 10:00:00 7.3 5 Norte 8 Norte 0 -- -- 97
2020-04-02 09:00:00 6.5 4 Nordeste 11 Norte 0 -- -- 98
2020-04-02 08:00:00 6.2 6 Nordeste 13 Nordeste 0.6 -- -- 99
2020-04-02 07:00:00 6.2 8 Nordeste 17 Nordeste 1 -- -- 98
2020-04-02 06:00:00 6.4 10 Nordeste 17 Nordeste 0.2 -- -- 97
2020-04-02 05:00:00 6.5 12 Nordeste 18 Nordeste 0.2 -- -- 95
2020-04-02 04:00:00 6.5 7 Norte 13 Norte 0.2 -- -- 97
2020-04-02 03:00:00 6.2 5 Norte 11 Norte 0.2 -- -- 97
2020-04-02 02:00:00 6.2 5 Norte 11 Norte 0 -- -- 95
2020-04-02 01:00:00 6.2 6 Norte 12 Norte 0 -- -- 94
2020-04-02 00:00:00 6.7 8 Norte 14 Norte 0.2 -- -- 95
2020-04-01 23:00:00 6.5 7 Nordeste 10 Nordeste 0 -- -- 93
2020-04-01 22:00:00 6.1 6 Nordeste 11 Nordeste 0 -- -- 97
2020-04-01 21:00:00 6 7 Norte 18 Nordeste 2.2 -- -- 98
2020-04-01 20:00:00 6.3 9 Sudeste 29 Sudeste 5 -- -- 98
2020-04-01 19:00:00 7.2 13 Sudeste 26 Sudeste 0.6 -- -- 94
2020-04-01 18:00:00 7.6 9 Sur 40 Sur 1 -- -- 91
2020-04-01 17:00:00 10.3 17 Sur 36 Sudoeste 0 -- -- 71
2020-04-01 16:00:00 14.2 9 Este 17 Este 0 -- -- 57
2020-04-01 15:00:00 12.3 6 Este 18 Nordeste 0 -- -- 63
2020-04-01 14:00:00 12.3 3 Norte 16 Nordeste 0 -- -- 67
2020-04-01 13:00:00 11.9 9 Nordeste 18 Este 0 -- -- 74
2020-04-01 12:00:00 10.9 4 Este 12 Sudeste 0 -- -- 75
2020-04-01 11:00:00 8.2 6 Sudeste 13 Sudeste 0 -- -- 86
2020-04-01 10:00:00 5.1 5 Nordeste 12 Este 0 -- -- 98
2020-04-01 09:00:00 3.4 5 Este 13 Este 0 -- -- 100
2020-04-01 08:00:00 1.3 4 Nordeste 10 Este 0 -- -- 98
2020-04-01 07:00:00 3.1 5 Este 14 Este 0 -- -- 99
2020-04-01 06:00:00 3.9 5 Este 13 Este 0 -- -- 99
2020-04-01 05:00:00 4.5 7 Este 14 Este 0 -- -- 98
2020-04-01 04:00:00 4.8 6 Nordeste 17 Este 0 -- -- 98
2020-04-01 03:00:00 4.9 7 Nordeste 18 Este 0.6 -- -- 98
2020-04-01 02:00:00 4.6 9 Este 23 Este 1.4 -- -- 97
2020-04-01 01:00:00 4.7 12 Este 27 Este 0.2 -- -- 94
2020-04-01 00:00:00 4.8 11 Este 32 Nordeste 0 -- -- 90
2020-03-31 23:00:00 5.1 15 Este 29 Este 0 -- -- 91
2020-03-31 22:00:00 5.1 12 Este 28 Este 0 -- -- 92
2020-03-31 21:00:00 6.9 17 Este 33 Este 0 -- -- 84
2020-03-31 20:00:00 7.1 17 Este 35 Este 0 -- -- 87
2020-03-31 19:00:00 7.9 19 Este 36 Este 0 -- -- 79
2020-03-31 18:00:00 8.1 18 Este 37 Este 0 -- -- 75
2020-03-31 17:00:00 6.5 20 Nordeste 44 Este 0 -- -- 78
2020-03-31 16:00:00 6 18 Este 44 Este 0 -- -- 78
2020-03-31 15:00:00 6.8 21 Este 41 Este 0 -- -- 70
2020-03-31 14:00:00 7 23 Nordeste 43 Este 0 -- -- 66
2020-03-31 13:00:00 5.1 21 Este 62 Este 0 -- -- 69
2020-03-31 12:00:00 4.8 22 Este 45 Este 0 -- -- 67
2020-03-31 11:00:00 3.3 18 Este 41 Nordeste 0 -- -- 72
2020-03-31 10:00:00 1.3 19 Nordeste 42 Este 0 -- -- 75
2020-03-31 09:00:00 0.3 19 Nordeste 37 Nordeste 0 -- -- 75
2020-03-31 08:00:00 -0.2 18 Nordeste 41 Este 0 -- -- 77
2020-03-31 07:00:00 0.1 17 Nordeste 38 Nordeste 0 -- -- 76
2020-03-31 06:00:00 0 17 Nordeste 31 Este 0 -- -- 77
2020-03-31 05:00:00 -0.3 12 Nordeste 22 Nordeste 0 -- -- 79
2020-03-31 04:00:00 -0.8 11 Nordeste 33 Nordeste 0 -- -- 81
2020-03-31 03:00:00 0.3 17 Nordeste 31 Nordeste 0 -- -- 77
2020-03-31 02:00:00 0.4 13 Nordeste 30 Nordeste 0 -- -- 75
2020-03-31 01:00:00 0.5 14 Nordeste 30 Nordeste 0 -- -- 74
2020-03-31 00:00:00 0.4 14 Nordeste 31 Nordeste 0 -- -- 72
2020-03-30 23:00:00 0.5 17 Nordeste 35 Este 0 -- -- 70
2020-03-30 22:00:00 1 17 Nordeste 32 Nordeste 0 -- -- 67
2020-03-30 21:00:00 1.8 14 Nordeste 34 Nordeste 0 -- -- 63
2020-03-30 20:00:00 3.9 18 Este 42 Este 0 -- -- 51
2020-03-30 19:00:00 6 17 Este 42 Este 0 -- -- 45
2020-03-30 18:00:00 6 14 Este 44 Nordeste 0 -- -- 41
2020-03-30 17:00:00 7.2 21 Nordeste 44 Este 0 -- -- 41
2020-03-30 16:00:00 6 23 Nordeste 42 Nordeste 0 -- -- 45
2020-03-30 15:00:00 5.9 18 Este 39 Nordeste 0 -- -- 51
2020-03-30 14:00:00 5.2 21 Este 41 Este 0 -- -- 48
2020-03-30 13:00:00 4 16 Nordeste 41 Nordeste 0 -- -- 54
2020-03-30 12:00:00 3.1 18 Este 41 Nordeste 0 -- -- 58
2020-03-30 11:00:00 2.1 19 Nordeste 40 Este 0 -- -- 69
2020-03-30 10:00:00 2.6 14 Nordeste 36 Este 0 -- -- 66
2020-03-30 09:00:00 1.8 14 Este 37 Nordeste 0 -- -- 70
2020-03-30 08:00:00 1.9 18 Nordeste 40 Nordeste 0 -- -- 68
2020-03-30 07:00:00 2 23 Nordeste 46 Este 0 -- -- 66
2020-03-30 06:00:00 2.3 23 Nordeste 46 Este 0 -- -- 68
2020-03-30 05:00:00 2.7 22 Nordeste 42 Este 0 -- -- 74
2020-03-30 04:00:00 3.6 19 Nordeste 45 Nordeste 0 -- -- 73
2020-03-30 03:00:00 3.9 18 Nordeste 46 Nordeste 0 -- -- 72
2020-03-30 02:00:00 4.2 18 Nordeste 39 Nordeste 0 -- -- 73
2020-03-30 01:00:00 4.7 19 Nordeste 36 Este 0 -- -- 75
2020-03-30 00:00:00 4.8 13 Nordeste 30 Este 0 -- -- 80
2020-03-29 23:00:00 6.1 11 Este 27 Nordeste 0 -- -- 79
2020-03-29 22:00:00 6.8 15 Este 30 Este 0 -- -- 77
2020-03-29 21:00:00 7.6 17 Este 36 Este 0 -- -- 70
2020-03-29 20:00:00 11.4 12 Este 33 Nordeste 0 -- -- 52
2020-03-29 19:00:00 14.4 16 Este 30 Nordeste 0 -- -- 44
2020-03-29 18:00:00 16.8 9 Este 19 Este 0 -- -- 39
2020-03-29 17:00:00 17.1 6 Este 20 Este 0 -- -- 41
2020-03-29 16:00:00 15.9 6 Nordeste 19 Sudeste 0 -- -- 40
2020-03-29 15:00:00 15.2 8 Sudeste 16 Este 0 -- -- 40
2020-03-29 14:00:00 14.4 8 Nordeste 18 Este 0 -- -- 42
2020-03-29 13:00:00 13 8 Este 20 Este 0 -- -- 47
2020-03-29 12:00:00 11 10 Este 21 Este 0 -- -- 53
2020-03-29 11:00:00 8.9 10 Este 18 Este 0 -- -- 65
2020-03-29 10:00:00 5.6 8 Nordeste 14 Nordeste 0 -- -- 74
2020-03-29 09:00:00 3.3 7 Nordeste 10 Nordeste 0 -- -- 82
2020-03-29 08:00:00 1.3 6 Nordeste 9 Nordeste 0 -- -- 88
2020-03-29 07:00:00 -0.2 5 Nordeste 6 Nordeste 0 -- -- 96
2020-03-29 06:00:00 -0.5 2 Norte 4 Este 0 -- -- 95
2020-03-29 05:00:00 0.1 0 Calma 4 Nordeste 0 -- -- 94
2020-03-29 03:00:00 4.4 4 Nordeste 12 Nordeste 0 -- -- 81
2020-03-29 01:00:00 4.9 5 Nordeste 14 Nordeste 0 -- -- 80
2020-03-29 00:00:00 4.9 7 Nordeste 14 Norte 0 -- -- 80
2020-03-28 23:00:00 5.2 9 Nordeste 15 Nordeste 0 -- -- 71
2020-03-28 22:00:00 3.8 3 Norte 4 Norte 0 -- -- 77
2020-03-28 21:00:00 4.9 0 Calma -- -- 0 -- -- 73
2020-03-28 20:00:00 7.2 2 Noroeste 6 Norte 0 -- -- 71
2020-03-28 19:00:00 12.8 4 Norte 8 Nordeste 0 -- -- 45
2020-03-28 18:00:00 15.2 0 Calma 12 Sudeste 0 -- -- 37
2020-03-28 17:00:00 16.9 5 Sudeste 15 Este 0 -- -- 36
2020-03-28 16:00:00 16 4 Noroeste 14 Este 0 -- -- 37
2020-03-28 15:00:00 15.1 6 Este 17 Sur 0 -- -- 35
2020-03-28 14:00:00 14.2 9 Sudeste 16 Nordeste 0 -- -- 38
2020-03-28 13:00:00 13.8 6 Este 16 Este 0 -- -- 42
2020-03-28 12:00:00 12.3 6 Este 13 Este 0 -- -- 46
2020-03-28 11:00:00 10.6 7 Este 12 Nordeste 0 -- -- 47
2020-03-28 10:00:00 8.3 5 Este 19 Nordeste 0 -- -- 61
2020-03-28 09:00:00 4.3 8 Este 15 Nordeste 0 -- -- 76
2020-03-28 08:00:00 0 4 Nordeste 9 Este 0 -- -- 91
2020-03-28 07:00:00 -0.4 3 Nordeste 9 Este 0 -- -- 91
2020-03-28 06:00:00 0.3 5 Este 10 Nordeste 0 -- -- 89
2020-03-28 05:00:00 0.6 5 Este 10 Este 0 -- -- 88
2020-03-28 04:00:00 1.5 4 Este 10 Nordeste 0 -- -- 86
2020-03-28 03:00:00 -1 2 Nordeste 4 Este 0 -- -- 91
2020-03-28 02:00:00 0.8 3 Norte 11 Norte 0 -- -- 81
2020-03-28 01:00:00 2.8 6 Nordeste 17 Nordeste 0 -- -- 75
2020-03-28 00:00:00 3.5 9 Nordeste 18 Nordeste 0 -- -- 66
2020-03-27 23:00:00 3.6 6 Nordeste 15 Nordeste 0 -- -- 67
2020-03-27 22:00:00 5.1 9 Nordeste 15 Nordeste 0 -- -- 60
2020-03-27 21:00:00 6.7 5 Nordeste 13 Este 0 -- -- 54
2020-03-27 20:00:00 8.4 6 Nordeste 12 Nordeste 0 -- -- 50
2020-03-27 19:00:00 11.8 5 Este 26 Sudeste 0 -- -- 37
2020-03-27 18:00:00 12.9 13 Sudeste 32 Sudeste 0 -- -- 32
2020-03-27 17:00:00 13.2 14 Sudeste 31 Sudeste 0 -- -- 30
2020-03-27 16:00:00 12.8 13 Este 28 Sudeste 0 -- -- 35
2020-03-27 15:00:00 12.2 12 Este 29 Este 0 -- -- 38
2020-03-27 14:00:00 10.6 13 Este 30 Este 0 -- -- 43
2020-03-27 13:00:00 9.6 12 Este 26 Nordeste 0 -- -- 44
2020-03-27 12:00:00 7.7 13 Este 30 Este 0 -- -- 48
2020-03-27 11:00:00 6.3 15 Este 37 Este 0 -- -- 54
2020-03-27 10:00:00 4.5 19 Este 45 Este 0 -- -- 65
2020-03-27 09:00:00 2.4 15 Nordeste 26 Este 0 -- -- 76
2020-03-27 08:00:00 -0.2 12 Nordeste 23 Este 0 -- -- 85
2020-03-27 07:00:00 -0.9 14 Nordeste 22 Nordeste 0 -- -- 85
2020-03-27 06:00:00 -0.5 9 Nordeste 19 Este 0 -- -- 84
2020-03-27 05:00:00 -0.8 7 Este 19 Nordeste 0 -- -- 84
2020-03-27 04:00:00 -0.1 7 Nordeste 20 Este 0 -- -- 81
2020-03-27 03:00:00 0.3 8 Este 18 Este 0 -- -- 83
2020-03-27 02:00:00 0.2 6 Este 12 Este 0 -- -- 86
2020-03-27 01:00:00 0.4 4 Este 15 Sudeste 0 -- -- 87
2020-03-27 00:00:00 2.1 10 Este 19 Este 0 -- -- 83
2020-03-26 23:00:00 3.2 8 Este 21 Este 0 -- -- 82
2020-03-26 22:00:00 3.7 11 Este 25 Este 0 -- -- 79
2020-03-26 21:00:00 4.7 10 Este 20 Este 0 -- -- 69
2020-03-26 20:00:00 6.5 9 Este 25 Este 0 -- -- 65
2020-03-26 19:00:00 10.1 11 Este 27 Este 0 -- -- 53
2020-03-26 18:00:00 12.8 9 Sudeste 17 Este 0 -- -- 41
2020-03-26 17:00:00 13.6 7 Sudeste 19 Este 0 -- -- 41
2020-03-26 16:00:00 13.3 4 Sudeste 17 Sudeste 0 -- -- 39
2020-03-26 15:00:00 12.4 6 Este 19 Nordeste 0 -- -- 40
2020-03-26 14:00:00 11.6 6 Nordeste 15 Sudeste 0 -- -- 43
2020-03-26 13:00:00 11 4 Sudeste 10 Sudeste 0 -- -- 46
2020-03-26 12:00:00 9.5 4 Noroeste 14 Sudeste 0 -- -- 51
2020-03-26 11:00:00 8.2 7 Este 15 Este 0 -- -- 58
2020-03-26 10:00:00 7.6 3 Este 11 Este 0 -- -- 58
2020-03-26 09:00:00 4 3 Nordeste 6 Nordeste 0 -- -- 74
2020-03-26 08:00:00 -2.4 3 Noroeste 5 Noroeste 0 -- -- 95
2020-03-26 07:00:00 -2.9 0 Calma 6 Este 0 -- -- 94
2020-03-26 06:00:00 -1.1 5 Sudeste 9 Este 0 -- -- 91
2020-03-26 05:00:00 0.3 5 Este 13 Este 0 -- -- 88
2020-03-26 04:00:00 1.3 5 Este 15 Nordeste 0 -- -- 87
2020-03-26 03:00:00 1.8 7 Este 15 Este 0 -- -- 85
2020-03-26 02:00:00 2.5 5 Este 12 Nordeste 0 -- -- 67
2020-03-26 01:00:00 0.4 3 Noroeste 6 Norte 0 -- -- 81
2020-03-26 00:00:00 1 2 Oeste 5 Noroeste 0 -- -- 83
2020-03-25 23:00:00 2.9 4 Noroeste 8 Norte 0 -- -- 76
2020-03-25 22:00:00 4.4 4 Norte 10 Nordeste 0 -- -- 76
2020-03-25 21:00:00 9.6 7 Nordeste 13 Nordeste 0 -- -- 55
2020-03-25 20:00:00 9.2 5 Norte 10 Norte 0 -- -- 72
2020-03-25 19:00:00 16.9 5 Sudeste 12 Sudeste 0 -- -- 46
2020-03-25 18:00:00 18 8 Sudeste 14 Este 0 -- -- 36
2020-03-25 17:00:00 18.6 8 Sudeste 15 Sudeste 0 -- -- 36
2020-03-25 16:00:00 17.8 11 Sudeste 16 Sudeste 0 -- -- 36
2020-03-25 15:00:00 17.7 7 Sudeste 15 Sudeste 0 -- -- 39
2020-03-25 14:00:00 16.2 6 Nordeste 18 Norte 0 -- -- 42
2020-03-25 13:00:00 14.8 7 Oeste 18 Oeste 0 -- -- 57
2020-03-25 12:00:00 13.8 8 Noroeste 13 Noroeste 0 -- -- 64
2020-03-25 11:00:00 12 9 Oeste 14 Oeste 0 -- -- 67
2020-03-25 10:00:00 10.2 8 Oeste 11 Oeste 0 -- -- 71
2020-03-25 09:00:00 9.4 0 Calma 3 Oeste 0 -- -- 75
2020-03-25 08:00:00 1.4 2 Oeste 6 Oeste 0 -- -- 98
2020-03-25 07:00:00 0.7 2 Noroeste 3 Noroeste 0 -- -- 97
2020-03-25 06:00:00 1.4 3 Noroeste 5 Noroeste 0 -- -- 95
2020-03-25 05:00:00 1.3 0 Calma 7 Noroeste 0 -- -- 97
2020-03-25 04:00:00 1.5 3 Noroeste 6 Noroeste 0 -- -- 96
2020-03-25 03:00:00 1.5 3 Noroeste 8 Noroeste 0 -- -- 96
2020-03-25 02:00:00 2.6 2 Este 6 Nordeste 0 -- -- 91
2020-03-25 01:00:00 2.4 4 Norte 6 Norte 0 -- -- 93
2020-03-25 00:00:00 3.6 3 Norte 8 Este 0 -- -- 90
2020-03-24 23:00:00 5.6 4 Este 7 Este 0 -- -- 86
2020-03-24 22:00:00 7.4 3 Este 18 Este 0 -- -- 77
2020-03-24 21:00:00 9.1 9 Este 21 Este 0 -- -- 73
2020-03-24 20:00:00 10.8 7 Este 14 Este 0 -- -- 71
2020-03-24 19:00:00 15 6 Este 15 Nordeste 0 -- -- 54
2020-03-24 18:00:00 16.3 9 Este 19 Este 0 -- -- 47
2020-03-24 17:00:00 17.4 8 Este 21 Este 0 -- -- 47
2020-03-24 16:00:00 16.7 11 Este 24 Este 0 -- -- 50
2020-03-24 15:00:00 15.6 12 Este 24 Este 0 -- -- 50
2020-03-24 14:00:00 15.2 12 Este 32 Nordeste 0 -- -- 54
2020-03-24 13:00:00 14.4 14 Este 31 Este 0 -- -- 57
2020-03-24 12:00:00 13.5 15 Este 37 Este 0 -- -- 63
2020-03-24 11:00:00 11.9 16 Este 34 Nordeste 0 -- -- 71
2020-03-24 10:00:00 10.8 12 Este 28 Este 0 -- -- 77
2020-03-24 09:00:00 8.8 9 Nordeste 22 Nordeste 0 -- -- 86
2020-03-24 08:00:00 5.9 13 Este 26 Nordeste 0 -- -- 93
2020-03-24 07:00:00 5.2 13 Nordeste 24 Nordeste 0 -- -- 95
2020-03-24 06:00:00 5.5 12 Nordeste 26 Este 0 -- -- 95
2020-03-24 05:00:00 5.4 11 Nordeste 19 Este 0 -- -- 96
2020-03-24 04:00:00 5.5 11 Nordeste 21 Nordeste 0 -- -- 95
2020-03-24 03:00:00 5.5 11 Nordeste 21 Nordeste 0 -- -- 94
2020-03-24 02:00:00 6.2 9 Nordeste 19 Este 0 -- -- 92
2020-03-24 01:00:00 6.5 9 Nordeste 19 Este 0 -- -- 93
2020-03-24 00:00:00 6.9 11 Nordeste 23 Nordeste 0 -- -- 88
2020-03-23 23:00:00 7.2 9 Nordeste 19 Este 0 -- -- 87
2020-03-23 22:00:00 7.9 9 Este 27 Este 0 -- -- 85
2020-03-23 21:00:00 8.7 9 Este 21 Nordeste 0 -- -- 83
2020-03-23 20:00:00 10.2 8 Este 16 Este 0 -- -- 78
2020-03-23 19:00:00 12.9 5 Este 18 Este 0 -- -- 65
2020-03-23 18:00:00 14.5 9 Este 24 Este 0 -- -- 58
2020-03-23 17:00:00 15.3 8 Este 26 Nordeste 0 -- -- 52
2020-03-23 16:00:00 16 12 Este 25 Sudeste 0 -- -- 53
2020-03-23 15:00:00 15.3 14 Este 28 Sudeste 0 -- -- 53
2020-03-23 14:00:00 13.4 14 Este 27 Este 0 -- -- 60
2020-03-23 13:00:00 12.5 12 Este 27 Este 0 -- -- 63
2020-03-23 12:00:00 12.7 13 Este 32 Nordeste 0 -- -- 67
2020-03-23 11:00:00 11.7 12 Este 29 Este 0 -- -- 74
2020-03-23 10:00:00 9.4 15 Este 30 Este 0 -- -- 81
2020-03-23 09:00:00 7.2 12 Nordeste 24 Nordeste 0 -- -- 86
2020-03-23 08:00:00 5.1 12 Nordeste 21 Este 0 -- -- 90
2020-03-23 07:00:00 4.1 8 Nordeste 17 Nordeste 0 -- -- 92
2020-03-23 06:00:00 4.7 11 Nordeste 18 Nordeste 0 -- -- 92
2020-03-23 05:00:00 4.8 9 Nordeste 21 Nordeste 0 -- -- 92
2020-03-23 04:00:00 5 11 Nordeste 21 Nordeste 0 -- -- 92
2020-03-23 03:00:00 4.9 9 Nordeste 22 Nordeste 0 -- -- 93
2020-03-23 02:00:00 5.7 12 Nordeste 23 Nordeste 0 -- -- 90
2020-03-23 01:00:00 6.6 14 Nordeste 28 Nordeste 0 -- -- 87
2020-03-23 00:00:00 6.7 11 Nordeste 22 Nordeste 0 -- -- 87
2020-03-22 23:00:00 7.1 8 Nordeste 16 Nordeste 0 -- -- 87
2020-03-22 22:00:00 7.8 9 Nordeste 21 Norte 0 -- -- 85
2020-03-22 21:00:00 8.6 5 Nordeste 14 Nordeste 0 -- -- 82
2020-03-22 20:00:00 8.8 4 Sudeste 13 Sur 0 -- -- 85
2020-03-22 19:00:00 11.6 12 Sudeste 27 Sudeste 0 -- -- 76
2020-03-22 18:00:00 14.4 18 Sudeste 40 Este 0 -- -- 66
2020-03-22 17:00:00 16.7 15 Nordeste 24 Nordeste 0 -- -- 46
2020-03-22 16:00:00 16.4 10 Nordeste 22 Norte 0 -- -- 48
2020-03-22 15:00:00 16.5 5 Este 13 Sudeste 0 -- -- 54
2020-03-22 14:00:00 12.9 4 Nordeste 18 Sudeste 0 -- -- 69
2020-03-22 13:00:00 15 7 Sudeste 17 Este 0 -- -- 65
2020-03-22 12:00:00 11.8 6 Nordeste 14 Este 0 -- -- 81
2020-03-22 11:00:00 9.8 6 Este 18 Sudeste 0 -- -- 91
2020-03-22 10:00:00 8.9 8 Nordeste 15 Nordeste 0 -- -- 92
2020-03-22 09:00:00 7.9 3 Norte 9 Norte 0.2 -- -- 99
2020-03-22 08:00:00 6.2 3 Noroeste 3 Noroeste 0 -- -- 99
2020-03-22 07:00:00 6.4 0 Calma 4 Noroeste 0 -- -- 98
2020-03-22 06:00:00 6.5 3 Sur 5 Sur 0 -- -- 98
2020-03-22 05:00:00 6.2 4 Norte 10 Norte 0 -- -- 97
2020-03-22 04:00:00 6.4 0 Calma 4 Sudoeste 0 -- -- 98
2020-03-22 03:00:00 6.9 5 Sudoeste 10 Sudoeste 0 -- -- 98
2020-03-22 02:00:00 7.1 3 Sur 6 Sudoeste 0 -- -- 99
2020-03-22 01:00:00 6.9 2 Sur 10 Sur 0 -- -- 99
2020-03-22 00:00:00 7.3 5 Sur 9 Sur 0 -- -- 99
2020-03-21 23:00:00 7.6 5 Sudoeste 12 Sudoeste 0.2 -- -- 97
2020-03-21 22:00:00 7.9 4 Oeste 13 Sudeste 1.2 -- -- 96
2020-03-21 21:00:00 8.9 12 Sudeste 27 Sudeste 1 -- -- 95
2020-03-21 20:00:00 8.4 11 Sudoeste 19 Sudoeste 0 -- -- 91
2020-03-21 19:00:00 10.3 12 Sudoeste 17 Oeste 0 -- -- 85
2020-03-21 18:00:00 12.3 13 Oeste 23 Sudoeste 0 -- -- 77
2020-03-21 17:00:00 12.7 14 Oeste 22 Sudoeste 0 -- -- 78
2020-03-21 16:00:00 14.7 8 Sur 18 Sudoeste 0 -- -- 64
2020-03-21 15:00:00 13.7 4 Norte 11 Este 0 -- -- 65
2020-03-21 14:00:00 14.1 5 Este 15 Nordeste 0 -- -- 65
2020-03-21 13:00:00 12.9 9 Sudeste 22 Este 0 -- -- 67
2020-03-21 12:00:00 12.8 11 Este 23 Este 0 -- -- 71
2020-03-21 11:00:00 11.5 12 Este 23 Este 0 -- -- 78
2020-03-21 10:00:00 9.9 10 Este 20 Este 0 -- -- 82
2020-03-21 09:00:00 7 9 Nordeste 18 Nordeste 0 -- -- 92
2020-03-21 08:00:00 5.2 9 Nordeste 18 Este 0 -- -- 96
2020-03-21 07:00:00 4.8 9 Nordeste 17 Nordeste 0 -- -- 96
2020-03-21 06:00:00 4.4 2 Nordeste 14 Nordeste 0 -- -- 96
2020-03-21 05:00:00 5.1 8 Nordeste 13 Este 0 -- -- 93
2020-03-21 04:00:00 5.3 4 Este 13 Este 0 -- -- 95
2020-03-21 03:00:00 5.4 6 Nordeste 11 Este 0 -- -- 97
2020-03-21 02:00:00 5.6 4 Este 8 Este 0 -- -- 99
2020-03-21 01:00:00 6.7 5 Nordeste 12 Nordeste 0 -- -- 97
2020-03-21 00:00:00 6 3 Nordeste 11 Este 0 -- -- 97
2020-03-20 23:00:00 6.1 4 Nordeste 6 Nordeste 0 -- -- 98
2020-03-20 22:00:00 6.6 3 Sur 10 Sur 0 -- -- 94
2020-03-20 21:00:00 8.7 9 Sur 12 Sur 0 -- -- 93
2020-03-20 20:00:00 9.3 4 Sudoeste 9 Oeste 0 -- -- 94
2020-03-20 19:00:00 11.1 8 Oeste 20 Oeste 0 -- -- 89
2020-03-20 18:00:00 11.8 17 Oeste 23 Oeste 0 -- -- 86
2020-03-20 17:00:00 14.1 8 Sudeste 15 Sudeste 0 -- -- 71
2020-03-20 16:00:00 14.7 7 Sudeste 16 Sudeste 0 -- -- 64
2020-03-20 15:00:00 14.9 7 Este 15 Sudeste 0 -- -- 66
2020-03-20 14:00:00 13.7 7 Este 17 Sudeste 0 -- -- 69
2020-03-20 13:00:00 13.3 9 Este 19 Este 0 -- -- 73
2020-03-20 12:00:00 12.4 10 Este 22 Sudeste 0 -- -- 73
2020-03-20 11:00:00 10.6 9 Este 22 Este 0 -- -- 82
2020-03-20 10:00:00 8.8 12 Este 21 Este 0 -- -- 88
2020-03-20 09:00:00 7.4 9 Este 18 Nordeste 0 -- -- 92
2020-03-20 08:00:00 6.5 7 Este 17 Este 0 -- -- 92
2020-03-20 07:00:00 6.4 7 Este 14 Este 0 -- -- 93
2020-03-20 06:00:00 6.2 6 Este 19 Este 0 -- -- 92
2020-03-20 05:00:00 6.1 6 Este 13 Este 0 -- -- 90
2020-03-20 04:00:00 5.7 4 Este 10 Este 0 -- -- 91
2020-03-20 03:00:00 6.4 2 Este 7 Este 0 -- -- 88
2020-03-20 02:00:00 6.4 0 Calma 8 Nordeste 0 -- -- 92
2020-03-20 01:00:00 7.9 4 Este 9 Nordeste 0 -- -- 89
2020-03-20 00:00:00 6.3 0 Calma 4 Nordeste 0 -- -- 90
2020-03-19 23:00:00 6.2 3 Noroeste 5 Noroeste 0 -- -- 93
2020-03-19 22:00:00 7.3 3 Nordeste 5 Noroeste 0 -- -- 93
2020-03-19 21:00:00 9.1 2 Noroeste 10 Este 0 -- -- 88
2020-03-19 20:00:00 11.2 6 Sudeste 10 Sudeste 0 -- -- 81
2020-03-19 19:00:00 13.1 6 Sudeste 10 Sudeste 0 -- -- 71
2020-03-19 18:00:00 15.4 4 Sudeste 8 Este 0 -- -- 55
2020-03-19 17:00:00 16.5 4 Este 12 Este 0 -- -- 54
2020-03-19 16:00:00 16.3 4 Norte 12 Este 0 -- -- 56
2020-03-19 15:00:00 15.8 5 Oeste 13 Sudeste 0 -- -- 61
2020-03-19 14:00:00 14.9 4 Este 12 Este 0 -- -- 61
2020-03-19 13:00:00 13 8 Este 15 Este 0 -- -- 69
2020-03-19 12:00:00 11.8 8 Este 17 Sudeste 0 -- -- 75
2020-03-19 11:00:00 12.9 9 Sudeste 18 Este 0 -- -- 76
2020-03-19 10:00:00 11.1 9 Este 17 Este 0 -- -- 82
2020-03-19 09:00:00 8.6 4 Este 10 Nordeste 0 -- -- 88
2020-03-19 08:00:00 6.3 7 Nordeste 16 Este 0 -- -- 94
2020-03-19 07:00:00 6.7 8 Nordeste 14 Nordeste 0 -- -- 93
2020-03-19 06:00:00 7.2 5 Este 17 Nordeste 0 -- -- 93
2020-03-19 05:00:00 7.9 10 Nordeste 17 Este 0 -- -- 91
2020-03-19 04:00:00 8 7 Este 15 Nordeste 0 -- -- 91
2020-03-19 03:00:00 8.2 8 Nordeste 13 Nordeste 0 -- -- 91
2020-03-19 02:00:00 6.3 5 Nordeste 9 Este 0 -- -- 98
2020-03-19 01:00:00 6 4 Nordeste 5 Este 0 -- -- 98
2020-03-19 00:00:00 6.7 2 Nordeste 5 Nordeste 0 -- -- 95
2020-03-18 23:00:00 7.1 0 Calma 4 Nordeste 0 -- -- 93
2020-03-18 22:00:00 8.2 0 Calma 4 Noroeste 0 -- -- 92
2020-03-18 21:00:00 9.2 2 Noroeste 3 Norte 0 -- -- 93
2020-03-18 20:00:00 10.5 3 Noroeste 6 Norte 0 -- -- 90
2020-03-18 19:00:00 14.8 3 Nordeste 8 Nordeste 0 -- -- 72
2020-03-18 18:00:00 16.3 5 Nordeste 11 Nordeste 0 -- -- 65
2020-03-18 17:00:00 17.3 5 Este 13 Este 0 -- -- 62
2020-03-18 16:00:00 17.2 6 Nordeste 13 Este 0 -- -- 62
2020-03-18 15:00:00 15.1 5 Nordeste 17 Este 0 -- -- 68
2020-03-18 14:00:00 14.5 10 Este 17 Este 0 -- -- 68
2020-03-18 13:00:00 12.5 9 Este 18 Sudeste 0 -- -- 73
2020-03-18 12:00:00 11.4 10 Este 24 Nordeste 0 -- -- 76
2020-03-18 11:00:00 10.6 12 Nordeste 18 Este 0 -- -- 81
2020-03-18 10:00:00 8.8 10 Nordeste 19 Este 0 -- -- 87
2020-03-18 09:00:00 6.9 6 Nordeste 12 Nordeste 0 -- -- 93
2020-03-18 08:00:00 5.2 9 Nordeste 17 Este 0 -- -- 96
2020-03-18 07:00:00 5.5 9 Nordeste 21 Este 0 -- -- 96
2020-03-18 06:00:00 5.8 10 Nordeste 17 Nordeste 0 -- -- 95
2020-03-18 05:00:00 6.2 6 Nordeste 16 Este 0 -- -- 94
2020-03-18 04:00:00 6.8 8 Nordeste 20 Nordeste 0 -- -- 93
2020-03-18 03:00:00 7.1 10 Nordeste 18 Este 0 -- -- 94
2020-03-18 02:00:00 7.4 9 Nordeste 20 Nordeste 0 -- -- 94
2020-03-18 01:00:00 7.3 10 Nordeste 19 Nordeste 0 -- -- 94
2020-03-18 00:00:00 7.1 8 Nordeste 15 Este 0 -- -- 95
2020-03-17 23:00:00 7.5 9 Nordeste 24 Nordeste 0 -- -- 93
2020-03-17 22:00:00 8.1 14 Nordeste 27 Nordeste 0 -- -- 92
2020-03-17 21:00:00 8.1 13 Nordeste 29 Este 0 -- -- 93
2020-03-17 20:00:00 9 13 Este 27 Este 0 -- -- 90
2020-03-17 19:00:00 10.9 14 Este 37 Este 0 -- -- 82
2020-03-17 18:00:00 12.9 16 Este 38 Este 0 -- -- 74
2020-03-17 17:00:00 13.2 17 Nordeste 40 Este 0 -- -- 72
2020-03-17 16:00:00 12.3 21 Nordeste 37 Este 0 -- -- 75
2020-03-17 15:00:00 12.1 20 Nordeste 40 Nordeste 0 -- -- 75
2020-03-17 14:00:00 12.1 19 Este 51 Este 0 -- -- 74
2020-03-17 13:00:00 12 23 Nordeste 47 Este 0 -- -- 73
2020-03-17 12:00:00 11 23 Nordeste 52 Este 0 -- -- 75
2020-03-17 11:00:00 9.9 24 Este 49 Sudeste 0 -- -- 77
2020-03-17 10:00:00 8.3 16 Nordeste 36 Este 0 -- -- 81
2020-03-17 09:00:00 7.2 14 Nordeste 28 Nordeste 0 -- -- 82
2020-03-17 08:00:00 5.4 11 Nordeste 32 Nordeste 0 -- -- 89
2020-03-17 07:00:00 5.5 18 Nordeste 41 Este 0 -- -- 85
2020-03-17 06:00:00 5 14 Nordeste 33 Nordeste 0 -- -- 85
2020-03-17 05:00:00 4.7 18 Nordeste 37 Nordeste 0 -- -- 86
2020-03-17 04:00:00 4.3 17 Nordeste 42 Nordeste 0 -- -- 87
2020-03-17 03:00:00 4.3 18 Nordeste 44 Nordeste 0 -- -- 86
2020-03-17 02:00:00 4.9 26 Nordeste 47 Nordeste 0 -- -- 83
2020-03-17 01:00:00 4.6 21 Nordeste 34 Nordeste 0 -- -- 82
2020-03-17 00:00:00 5.1 19 Nordeste 40 Nordeste 0 -- -- 81
2020-03-16 23:00:00 5.2 19 Nordeste 37 Nordeste 0 -- -- 80
2020-03-16 22:00:00 5.3 19 Nordeste 33 Nordeste 0 -- -- 78
2020-03-16 21:00:00 5.5 12 Nordeste 25 Nordeste 0 -- -- 77
2020-03-16 20:00:00 5.6 12 Nordeste 34 Nordeste 0 -- -- 80
2020-03-16 19:00:00 6.4 17 Nordeste 33 Nordeste 0 -- -- 75
2020-03-16 18:00:00 8 12 Este 38 Nordeste 0 -- -- 74
2020-03-16 17:00:00 8.4 17 Nordeste 38 Este 0 -- -- 62
2020-03-16 16:00:00 8.3 20 Nordeste 49 Nordeste 0 -- -- 63
2020-03-16 15:00:00 9.9 19 Nordeste 31 Nordeste 0 -- -- 62
2020-03-16 14:00:00 7.3 10 Nordeste 19 Nordeste 0 -- -- 68
2020-03-16 13:00:00 5.9 7 Nordeste 13 Este 0 -- -- 72
2020-03-16 12:00:00 4.6 4 Este 13 Norte 0 -- -- 80
2020-03-16 11:00:00 3.4 6 Norte 15 Norte 0.2 -- -- 85
2020-03-16 10:00:00 2 10 Norte 21 Nordeste 0.6 -- -- 94
2020-03-16 09:00:00 1.1 10 Norte 15 Norte 0 -- -- 98
2020-03-16 08:00:00 0.6 2 Nordeste 13 Noroeste 0.4 -- -- 99
2020-03-16 07:00:00 0.5 10 Norte 14 Norte 0.8 -- -- 100
2020-03-16 06:00:00 0.2 9 Norte 15 Norte 1.6 -- -- 100
2020-03-16 05:00:00 0.1 9 Norte 17 Norte 2.2 -- -- 100
2020-03-16 04:00:00 0.1 10 Norte 18 Norte 1.4 -- -- 100
2020-03-16 03:00:00 0.1 11 Norte 18 Norte 3 -- -- 99
2020-03-16 02:00:00 0.2 13 Norte 20 Norte 1 -- -- 99
2020-03-16 01:00:00 0.1 13 Norte 35 Norte 0.8 -- -- 98
2020-03-16 00:00:00 0.6 25 Noroeste 43 Noroeste 1.8 -- -- 97
2020-03-15 23:00:00 2.8 32 Noroeste 56 Noroeste 0 -- -- 89
2020-03-15 22:00:00 5.7 31 Noroeste 44 Noroeste 0 -- -- 64
2020-03-15 21:00:00 5.8 24 Noroeste 41 Noroeste 0 -- -- 73
2020-03-15 20:00:00 7.9 17 Sudoeste 31 Sudoeste 0 -- -- 71
2020-03-15 19:00:00 12.6 19 Sudoeste 27 Sudoeste 0 -- -- 55
2020-03-15 18:00:00 13.7 22 Oeste 38 Oeste 0 -- -- 52
2020-03-15 17:00:00 15.8 32 Oeste 47 Oeste 0 -- -- 45
2020-03-15 16:00:00 17.4 30 Oeste 44 Oeste 0 -- -- 41
2020-03-15 15:00:00 16.5 23 Sudoeste 32 Sudoeste 0 -- -- 45
2020-03-15 14:00:00 17.6 18 Sudoeste 31 Sudoeste 0 -- -- 38
2020-03-15 13:00:00 17 15 Sudoeste 26 Sudoeste 0 -- -- 40
2020-03-15 12:00:00 14.8 14 Sudoeste 21 Sudoeste 0 -- -- 45
2020-03-15 11:00:00 12.6 6 Sudoeste 9 Sudoeste 0 -- -- 57
2020-03-15 10:00:00 8.9 4 Sudeste 8 Sur 0 -- -- 63
2020-03-15 09:00:00 5.6 3 Sudeste 6 Este 0 -- -- 70
2020-03-15 08:00:00 -1.8 0 Calma 0 Calma 0 -- -- 94
2020-03-15 07:00:00 -1.4 0 Calma 0 Calma 0 -- -- 92
2020-03-15 06:00:00 -0.9 0 Calma 4 Noroeste 0 -- -- 91
2020-03-15 05:00:00 -0.8 2 Noroeste 3 Oeste 0 -- -- 89
2020-03-15 04:00:00 0 3 Norte 3 Norte 0 -- -- 89
2020-03-15 03:00:00 0.4 0 Calma 3 Norte 0 -- -- 87
2020-03-15 02:00:00 0.8 0 Calma 3 Norte 0 -- -- 84
2020-03-15 01:00:00 1.2 0 Calma 4 Noroeste 0 -- -- 85
2020-03-15 00:00:00 1.9 0 Calma 3 Noroeste 0 -- -- 82
2020-03-14 23:00:00 2.1 0 Calma 3 Noroeste 0 -- -- 81
2020-03-14 22:00:00 3.3 2 Norte -- -- 0 -- -- 77
2020-03-14 21:00:00 4.2 0 Calma 3 Norte 0 -- -- 77
2020-03-14 20:00:00 6.8 2 Norte 4 Este 0 -- -- 70
2020-03-14 19:00:00 16.6 2 Este 6 Sudeste 0 -- -- 33
2020-03-14 18:00:00 19 3 Sudeste 10 Sudeste 0 -- -- 27
2020-03-14 17:00:00 19.6 5 Sur 8 Sur 0 -- -- 28
2020-03-14 16:00:00 18.4 4 Sudoeste 9 Sur 0 -- -- 31
2020-03-14 15:00:00 16.4 5 Sudeste 15 Sudeste 0 -- -- 34
2020-03-14 14:00:00 14.4 7 Sudeste 14 Este 0 -- -- 44
2020-03-14 13:00:00 13.6 6 Sudeste 13 Sudeste 0 -- -- 54
2020-03-14 12:00:00 12.5 4 Este 13 Este 0 -- -- 52
2020-03-14 11:00:00 10 6 Este 13 Este 0 -- -- 62
2020-03-14 10:00:00 7.5 5 Este 9 Este 0 -- -- 70
2020-03-14 09:00:00 3.6 2 Norte 6 Nordeste 0 -- -- 85
2020-03-14 08:00:00 -2 3 Norte 5 Norte 0 -- -- 96
2020-03-14 07:00:00 -2.1 0 Calma 4 Noroeste 0 -- -- 96
2020-03-14 06:00:00 -2 0 Calma 4 Norte 0 -- -- 96
2020-03-14 05:00:00 -1.4 0 Calma 4 Norte 0 -- -- 96
2020-03-14 04:00:00 -0.8 0 Calma 4 Norte 0 -- -- 95
2020-03-14 03:00:00 0 2 Norte 9 Norte 0 -- -- 94
2020-03-14 02:00:00 2 4 Nordeste 9 Nordeste 0 -- -- 90
2020-03-14 01:00:00 3.4 4 Nordeste 10 Nordeste 0 -- -- 88
2020-03-14 00:00:00 4.2 6 Nordeste 12 Este 0 -- -- 87
2020-03-13 23:00:00 4.7 6 Nordeste 10 Nordeste 0 -- -- 88
2020-03-13 22:00:00 5.2 5 Este 17 Este 0 -- -- 86
2020-03-13 21:00:00 6.1 6 Este 17 Nordeste 0 -- -- 85
2020-03-13 20:00:00 7.4 8 Este 23 Este 0 -- -- 81
2020-03-13 19:00:00 10.1 13 Este 25 Este 0 -- -- 70
2020-03-13 18:00:00 12.5 15 Este 28 Este 0 -- -- 63
2020-03-13 17:00:00 13.7 12 Este 29 Nordeste 0 -- -- 61
2020-03-13 16:00:00 13.5 17 Nordeste 31 Nordeste 0 -- -- 61
2020-03-13 15:00:00 13.2 14 Este 30 Este 0 -- -- 63
2020-03-13 14:00:00 13.1 18 Nordeste 33 Nordeste 0 -- -- 64
2020-03-13 13:00:00 12.9 15 Nordeste 34 Nordeste 0 -- -- 64
2020-03-13 12:00:00 11.3 15 Nordeste 35 Este 0 -- -- 71
2020-03-13 11:00:00 10.1 18 Nordeste 37 Este 0 -- -- 72
2020-03-13 10:00:00 9.9 17 Este 41 Este 0 -- -- 74
2020-03-13 09:00:00 7.4 16 Nordeste 33 Este 0 -- -- 84
2020-03-13 08:00:00 6.9 13 Nordeste 33 Nordeste 0 -- -- 87
2020-03-13 07:00:00 6.8 16 Nordeste 31 Nordeste 0 -- -- 87
2020-03-13 06:00:00 6.7 16 Nordeste 29 Nordeste 0 -- -- 88
2020-03-13 05:00:00 5.8 12 Nordeste 31 Este 0 -- -- 91
2020-03-13 04:00:00 6.2 12 Nordeste 26 Nordeste 0 -- -- 91
2020-03-13 03:00:00 6.5 11 Nordeste 23 Nordeste 0 -- -- 89
2020-03-13 02:00:00 6.6 10 Nordeste 22 Nordeste 0 -- -- 88
2020-03-13 01:00:00 7.1 12 Nordeste 27 Nordeste 0 -- -- 86
2020-03-13 00:00:00 7.4 13 Este 31 Nordeste 0 -- -- 85
2020-03-12 23:00:00 7.7 13 Este 38 Nordeste 0 -- -- 85
2020-03-12 22:00:00 8.3 15 Este 35 Este 0 -- -- 84
2020-03-12 21:00:00 9.3 15 Nordeste 32 Este 0 -- -- 85
2020-03-12 20:00:00 10.5 14 Este 31 Nordeste 0 -- -- 81
2020-03-12 19:00:00 12.4 12 Este 30 Este 0 -- -- 78
2020-03-12 18:00:00 14.2 17 Este 27 Este 0 -- -- 71
2020-03-12 17:00:00 16.4 13 Este 26 Este 0 -- -- 68
2020-03-12 16:00:00 18.6 10 Este 20 Este 0 -- -- 62
2020-03-12 15:00:00 17.3 10 Este 20 Este 0 -- -- 64
2020-03-12 14:00:00 16.5 9 Este 18 Este 0 -- -- 68
2020-03-12 13:00:00 16.2 9 Este 17 Este 0 -- -- 68
2020-03-12 12:00:00 15.6 8 Este 15 Este 0 -- -- 68
2020-03-12 11:00:00 14.4 6 Este 13 Este 0 -- -- 70
2020-03-12 10:00:00 13.8 6 Este 12 Este 0 -- -- 70
2020-03-12 09:00:00 9.1 2 Norte 4 Norte 0 -- -- 86
2020-03-12 08:00:00 7.2 0 Calma 4 Este 0 -- -- 91
2020-03-12 07:00:00 7.1 0 Calma 4 Norte 0 -- -- 92
2020-03-12 06:00:00 7.7 3 Norte 5 Norte 0 -- -- 89
2020-03-12 05:00:00 6.9 0 Calma 4 Este 0 -- -- 90
2020-03-12 04:00:00 7.2 0 Calma 5 Nordeste 0 -- -- 86
2020-03-12 03:00:00 7.1 3 Noroeste 4 Sur 0 -- -- 86
2020-03-12 02:00:00 8.4 0 Calma 14 Sudoeste 0 -- -- 81
2020-03-12 01:00:00 9.2 6 Sudoeste 13 Sudoeste 0 -- -- 80
2020-03-12 00:00:00 10.1 8 Sudoeste 11 Sudoeste 0 -- -- 75
2020-03-11 23:00:00 10.1 4 Oeste 13 Sudoeste 0 -- -- 76
2020-03-11 22:00:00 12.2 13 Sudoeste 19 Sudoeste 0 -- -- 69
2020-03-11 21:00:00 13.7 16 Sudoeste 25 Sudoeste 0 -- -- 65
2020-03-11 20:00:00 13.6 15 Sudoeste 19 Sudoeste 0 -- -- 70
2020-03-11 19:00:00 17.2 12 Sudoeste 18 Sur 0 -- -- 62
2020-03-11 18:00:00 21 11 Sudoeste 25 Sudoeste 0 -- -- 49
2020-03-11 17:00:00 22.2 21 Sudoeste 26 Sudoeste 0 -- -- 41
2020-03-11 16:00:00 21.3 14 Oeste 24 Sudoeste 0 -- -- 39
2020-03-11 15:00:00 21.1 13 Sudoeste 24 Sudoeste 0 -- -- 35
2020-03-11 14:00:00 19.1 15 Sudoeste 30 Sudoeste 0 -- -- 43
2020-03-11 13:00:00 17.7 5 Sudoeste 13 Sudoeste 0 -- -- 59
2020-03-11 12:00:00 16.8 5 Sur 10 Sudoeste 0 -- -- 52
2020-03-11 11:00:00 14.5 3 Sur 7 Este 0 -- -- 57
2020-03-11 10:00:00 10.6 4 Nordeste 7 Este 0 -- -- 64
2020-03-11 09:00:00 6.4 3 Nordeste 5 Nordeste 0 -- -- 74
2020-03-11 08:00:00 0.5 0 Calma 2 Noroeste 0 -- -- 91
2020-03-11 07:00:00 0.9 0 Calma 3 Este 0 -- -- 90
2020-03-11 06:00:00 1.4 0 Calma 3 Oeste 0 -- -- 88
2020-03-11 05:00:00 2.5 0 Calma 12 Sur 0 -- -- 85
2020-03-11 04:00:00 4.3 3 Norte 9 Oeste 0 -- -- 76
2020-03-11 03:00:00 4.2 5 Oeste 8 Oeste 0 -- -- 80
2020-03-11 02:00:00 5 3 Oeste 10 Oeste 0 -- -- 76
2020-03-11 01:00:00 5.7 9 Oeste 23 Oeste 0 -- -- 76
2020-03-11 00:00:00 8.3 17 Oeste 21 Sudoeste 0 -- -- 65
2020-03-10 23:00:00 8.3 9 Sudoeste 17 Sudoeste 0 -- -- 65
2020-03-10 22:00:00 9.9 14 Sudoeste 22 Sudoeste 0 -- -- 62
2020-03-10 21:00:00 10.3 17 Sudoeste 20 Sudoeste 0 -- -- 64
2020-03-10 20:00:00 11.1 12 Sudoeste 17 Sudoeste 0 -- -- 68
2020-03-10 19:00:00 16.1 15 Sudoeste 20 Sudoeste 0 -- -- 57
2020-03-10 18:00:00 21.1 14 Sudoeste 19 Sudoeste 0 -- -- 43
2020-03-10 17:00:00 20.8 12 Sudoeste 24 Oeste 0 -- -- 43
2020-03-10 16:00:00 19 16 Oeste 24 Sudoeste 0 -- -- 48
2020-03-10 15:00:00 17.4 15 Oeste 24 Oeste 0 -- -- 51
2020-03-10 14:00:00 17 14 Sudoeste 24 Sudoeste 0 -- -- 53
2020-03-10 13:00:00 16.4 13 Sudoeste 22 Sudoeste 0 -- -- 55
2020-03-10 12:00:00 13.5 14 Sudoeste 21 Sudoeste 0 -- -- 63
2020-03-10 11:00:00 12.8 11 Sudoeste 17 Sudoeste 0 -- -- 67
2020-03-10 10:00:00 10 6 Sur 11 Sur 0 -- -- 74
2020-03-10 09:00:00 5.1 0 Calma 6 Sur 0 -- -- 89
2020-03-10 08:00:00 2.7 5 Sur 8 Sur 0 -- -- 93
2020-03-10 07:00:00 3.2 0 Calma 7 Sudoeste 0 -- -- 92
2020-03-10 06:00:00 3.6 5 Sudoeste 12 Sudoeste 0 -- -- 92
2020-03-10 05:00:00 3.2 8 Sudoeste 14 Oeste 0 -- -- 94
2020-03-10 04:00:00 3.5 3 Sudoeste 9 Oeste 0 -- -- 89
2020-03-10 03:00:00 3.5 5 Norte 8 Noroeste 0 -- -- 87
2020-03-10 02:00:00 5.3 4 Noroeste 13 Noroeste 0 -- -- 82
2020-03-10 01:00:00 5.9 6 Noroeste 13 Oeste 0 -- -- 81
2020-03-10 00:00:00 5.7 6 Oeste 13 Oeste 0 -- -- 82
2020-03-09 23:00:00 5.1 8 Oeste 19 Oeste 0 -- -- 86
2020-03-09 22:00:00 5.9 13 Oeste 24 Oeste 0 -- -- 86
2020-03-09 21:00:00 7.5 17 Oeste 19 Oeste 0 -- -- 77
2020-03-09 20:00:00 7.2 12 Sudoeste 13 Sudoeste 0 -- -- 79
2020-03-09 19:00:00 11.4 9 Sudoeste 16 Sudoeste 0 -- -- 67
2020-03-09 18:00:00 14.9 10 Noroeste 19 Oeste 0 -- -- 41
2020-03-09 17:00:00 14.7 13 Oeste 22 Oeste 0 -- -- 41
2020-03-09 16:00:00 14.4 8 Noroeste 23 Noroeste 0 -- -- 40
2020-03-09 15:00:00 13.2 11 Noroeste 18 Noroeste 0 -- -- 41
2020-03-09 14:00:00 11.6 14 Noroeste 22 Noroeste 0 -- -- 53
2020-03-09 13:00:00 10.7 13 Noroeste 23 Noroeste 0 -- -- 54
2020-03-09 12:00:00 10.2 10 Noroeste 18 Noroeste 0 -- -- 60
2020-03-09 11:00:00 8.1 14 Noroeste 30 Noroeste 0 -- -- 69
2020-03-09 10:00:00 6.8 13 Noroeste 19 Noroeste 0 -- -- 80
2020-03-09 09:00:00 3.4 8 Noroeste 13 Oeste 0 -- -- 88
2020-03-09 08:00:00 -0.3 0 Calma 12 Oeste 0 -- -- 96
2020-03-09 07:00:00 2.5 11 Noroeste 23 Noroeste 0 -- -- 88
2020-03-09 06:00:00 1.9 13 Noroeste 23 Oeste 0 -- -- 89
2020-03-09 05:00:00 2.7 18 Oeste 22 Oeste 0 -- -- 87
2020-03-09 04:00:00 2.8 13 Oeste 29 Oeste 0 -- -- 89
2020-03-09 03:00:00 4.2 20 Oeste 23 Oeste 0 -- -- 82
2020-03-09 02:00:00 4.5 13 Oeste 31 Noroeste 0 -- -- 81
2020-03-09 01:00:00 6.2 19 Oeste 43 Noroeste 0 -- -- 74
2020-03-09 00:00:00 7.2 31 Noroeste 40 Noroeste 0 -- -- 71